Time;durP1;ratioP1;P1;durP2;ratioP2;P2;SDS_P1;SDS_P2;PMS_P1;PMS_P2;Temp;Humidity;BMP_temperature;BMP_pressure;BME280_temperature;BME280_humidity;BME280_pressure;Samples;Min_cycle;Max_cycle;Signal;HPM_P1;HPM_P2
2022/07/17 00:00:18;;;;;;;;;;;;;;;;;;5154629;27;20324;-88
2022/07/17 00:02:44;;;;;;;;;;;;;;;;;;5154764;27;20479;-87
2022/07/17 00:05:09;;;;;;;;;;;;;;;;;;5154719;27;19923;-89
2022/07/17 00:07:35;;;;;;;;;;;;;;;;;;5154652;27;19915;-84
2022/07/17 00:10:00;;;;;;;;;;;;;;;;;;5154484;27;19968;-89
2022/07/17 00:12:26;;;;;;;;;;;;;;;;;;5161957;27;19921;-84
2022/07/17 00:14:51;;;;;;;;;;;;;;;;;;5159464;27;19919;-85
2022/07/17 00:17:16;;;;;;;;;;;;;;;;;;5158897;27;20332;-82
2022/07/17 00:19:43;;;;;;;;;;;;;;;;;;5158712;27;19915;-86
2022/07/17 00:22:08;;;;;;;;;;;;;;;;;;5158525;27;20461;-86
2022/07/17 00:24:34;;;;;;;;;;;;;;;;;;5158830;27;19964;-85
2022/07/17 00:26:59;;;;;;;;;;;;;;;;;;5158580;27;19937;-84
2022/07/17 00:29:25;;;;;;;;;;;;;;;;;;5158584;27;19915;-89
2022/07/17 00:31:50;;;;;;;;;;;;;;;;;;5158526;27;20464;-86
2022/07/17 00:34:16;;;;;;;;;;;;;;;;;;5158405;27;19915;-83
2022/07/17 00:36:41;;;;;;;;;;;;;;;;;;5158346;27;19915;-84
2022/07/17 00:39:07;;;;;;;;;;;;;;;;;;5158420;27;19922;-90
2022/07/17 00:41:32;;;;;;;;;;;;;;;;;;5158396;27;19915;-91
2022/07/17 00:44:04;;;;;;;;;;;;;;;;;;5158281;27;20355;-92
2022/07/17 00:46:30;;;;;;;;;;;;;;;;;;5158288;27;19931;-86
2022/07/17 00:48:55;;;;;;;;;;;;;;;;;;5158425;27;19919;-87
2022/07/17 00:51:21;;;;;;;;;;;;;;;;;;5158047;27;19915;-83
2022/07/17 00:53:46;;;;;;;;;;;;;;;;;;5158095;27;19915;-83
2022/07/17 00:56:12;;;;;;;;;;;;;;;;;;5157903;27;19954;-88
2022/07/17 00:58:38;;;;;;;;;;;;;;;;;;5157697;27;19915;-83
2022/07/17 01:01:06;;;;;;;;;;;;;;;;;;5158034;27;19915;-82
2022/07/17 01:03:31;;;;;;;;;;;;;;;;;;5157752;27;19915;-86
2022/07/17 01:05:57;;;;;;;;;;;;;;;;;;5157849;27;20381;-88
2022/07/17 01:08:23;;;;;;;;;;;;;;;;;;5122055;27;19915;-91
2022/07/17 01:10:48;;;;;;;;;;;;;;;;;;5157738;27;20392;-83
2022/07/17 01:13:13;;;;;;;;;;;;;;;;;;5157656;27;19915;-86
2022/07/17 01:15:39;;;;;;;;;;;;;;;;;;5157608;27;19919;-88
2022/07/17 01:18:07;;;;;;;;;;;;;;;;;;5157572;27;19915;-85
2022/07/17 01:20:32;;;;;;;;;;;;;;;;;;5138801;27;20026;-85
2022/07/17 01:22:58;;;;;;;;;;;;;;;;;;5157507;27;19958;-82
2022/07/17 01:25:23;;;;;;;;;;;;;;;;;;5138731;27;19915;-83
2022/07/17 01:27:49;;;;;;;;;;;;;;;;;;5156203;27;19957;-86
2022/07/17 01:30:14;;;;;;;;;;;;;;;;;;5157219;27;19915;-91
2022/07/17 01:32:40;;;;;;;;;;;;;;;;;;5138784;27;20271;-84
2022/07/17 01:35:07;;;;;;;;;;;;;;;;;;5157237;27;20005;-91
2022/07/17 01:37:32;;;;;;;;;;;;;;;;;;5157301;27;19915;-82
2022/07/17 01:39:58;;;;;;;;;;;;;;;;;;5157312;27;20420;-86
2022/07/17 01:42:24;;;;;;;;;;;;;;;;;;5157273;27;20402;-92
2022/07/17 01:44:50;;;;;;;;;;;;;;;;;;5138683;27;20312;-86
2022/07/17 01:47:16;;;;;;;;;;;;;;;;;;5157029;27;19911;-89
2022/07/17 01:49:45;;;;;;;;;;;;;;;;;;5157049;27;19915;-87
2022/07/17 01:52:10;;;;;;;;;;;;;;;;;;5156994;27;19923;-89
2022/07/17 01:54:36;;;;;;;;;;;;;;;;;;5156967;27;19921;-90
2022/07/17 01:57:01;;;;;;;;;;;;;;;;;;5138299;27;20022;-87
2022/07/17 01:59:26;;;;;;;;;;;;;;;;;;5156717;27;19954;-89
2022/07/17 02:01:52;;;;;;;;;;;;;;;;;;5156753;27;19923;-83
2022/07/17 02:04:17;;;;;;;;;;;;;;;;;;5156752;27;20370;-86
2022/07/17 02:06:43;;;;;;;;;;;;;;;;;;5156743;27;19968;-87
2022/07/17 02:09:08;;;;;;;;;;;;;;;;;;5156651;27;19915;-87
2022/07/17 02:11:33;;;;;;;;;;;;;;;;;;5156379;27;19916;-88
2022/07/17 02:13:59;;;;;;;;;;;;;;;;;;5156602;27;20374;-88
2022/07/17 02:16:24;;;;;;;;;;;;;;;;;;5156652;27;19915;-91
2022/07/17 02:18:49;;;;;;;;;;;;;;;;;;5156488;27;19915;-86
2022/07/17 02:21:15;;;;;;;;;;;;;;;;;;5134156;27;20403;-88
2022/07/17 02:23:40;;;;;;;;;;;;;;;;;;5135533;27;19921;-88
2022/07/17 02:26:06;;;;;;;;;;;;;;;;;;5135582;27;19915;-90
2022/07/17 02:28:31;;;;;;;;;;;;;;;;;;5135622;27;19943;-85
2022/07/17 02:30:56;;;;;;;;;;;;;;;;;;5134145;27;19984;-88
2022/07/17 02:33:22;;;;;;;;;;;;;;;;;;5135446;27;19958;-88
2022/07/17 02:35:47;;;;;;;;;;;;;;;;;;5135644;27;19954;-87
2022/07/17 02:38:13;;;;;;;;;;;;;;;;;;5135204;27;19919;-88
2022/07/17 02:40:38;;;;;;;;;;;;;;;;;;5135422;27;19939;-88
2022/07/17 02:43:04;;;;;;;;;;;;;;;;;;5134043;27;20268;-89
2022/07/17 02:45:29;;;;;;;;;;;;;;;;;;5135271;27;19920;-88
2022/07/17 02:47:54;;;;;;;;;;;;;;;;;;5135214;27;19915;-90
2022/07/17 02:50:21;;;;;;;;;;;;;;;;;;5136782;27;20382;-88
2022/07/17 02:52:47;;;;;;;;;;;;;;;;;;5133912;27;20370;-87
2022/07/17 02:55:13;;;;;;;;;;;;;;;;;;5134959;27;20003;-84
2022/07/17 02:57:38;;;;;;;;;;;;;;;;;;5137975;27;19968;-83
2022/07/17 03:00:05;;;;;;;;;;;;;;;;;;5155684;27;20556;-83
2022/07/17 03:02:31;;;;;;;;;;;;;;;;;;5157008;27;19958;-86
2022/07/17 03:04:56;;;;;;;;;;;;;;;;;;5155745;27;19915;-86
2022/07/17 03:07:22;;;;;;;;;;;;;;;;;;5155964;27;20009;-84
2022/07/17 03:09:47;;;;;;;;;;;;;;;;;;5149470;27;20385;-87
2022/07/17 03:12:12;;;;;;;;;;;;;;;;;;5135570;27;19916;-87
2022/07/17 03:14:38;;;;;;;;;;;;;;;;;;5135236;27;20299;-85
2022/07/17 03:17:03;;;;;;;;;;;;;;;;;;5133690;27;19971;-83
2022/07/17 03:19:28;;;;;;;;;;;;;;;;;;5134474;27;19922;-83
2022/07/17 03:21:54;;;;;;;;;;;;;;;;;;5132916;27;19919;-83
2022/07/17 03:24:19;;;;;;;;;;;;;;;;;;5134385;27;20263;-87
2022/07/17 03:26:45;;;;;;;;;;;;;;;;;;5134352;27;19911;-83
2022/07/17 03:29:11;;;;;;;;;;;;;;;;;;5138975;27;20432;-85
2022/07/17 03:31:36;;;;;;;;;;;;;;;;;;5142707;27;19923;-84
2022/07/17 03:34:01;;;;;;;;;;;;;;;;;;5133098;27;19919;-84
2022/07/17 03:36:27;;;;;;;;;;;;;;;;;;5134310;27;20390;-84
2022/07/17 03:38:52;;;;;;;;;;;;;;;;;;5132940;27;19923;-84
2022/07/17 03:41:18;;;;;;;;;;;;;;;;;;5135481;27;19915;-92
2022/07/17 03:43:43;;;;;;;;;;;;;;;;;;5134586;27;19915;-86
2022/07/17 03:46:08;;;;;;;;;;;;;;;;;;5133731;28;19921;-91
2022/07/17 03:48:34;;;;;;;;;;;;;;;;;;5135487;28;19915;-85
2022/07/17 03:50:59;;;;;;;;;;;;;;;;;;5163500;27;19925;-84
2022/07/17 03:53:25;;;;;;;;;;;;;;;;;;5164658;27;19919;-85
2022/07/17 03:55:50;;;;;;;;;;;;;;;;;;5166536;27;19910;-84
2022/07/17 03:58:16;;;;;;;;;;;;;;;;;;5167818;27;19915;-93
2022/07/17 04:00:41;;;;;;;;;;;;;;;;;;5155511;27;19919;-94
2022/07/17 04:03:06;;;;;;;;;;;;;;;;;;5146408;27;19927;-94
2022/07/17 04:05:32;;;;;;;;;;;;;;;;;;5142891;27;19929;-93
2022/07/17 04:07:58;;;;;;;;;;;;;;;;;;5137177;27;19915;-90
2022/07/17 04:10:23;;;;;;;;;;;;;;;;;;5139338;27;19922;-88
2022/07/17 04:12:49;;;;;;;;;;;;;;;;;;5138214;27;19923;-93
2022/07/17 04:15:48;;;;;;;;;;;;;;;;;;5137918;27;20347;-91
2022/07/17 04:17:59;;;;;;;;;;;;;;;;;;5152028;27;19919;-86
2022/07/17 04:20:25;;;;;;;;;;;;;;;;;;5138179;27;20324;-92
2022/07/17 04:22:50;;;;;;;;;;;;;;;;;;5117338;28;19925;-90
2022/07/17 04:25:16;;;;;;;;;;;;;;;;;;5099707;28;19919;-93
2022/07/17 04:27:41;;;;;;;;;;;;;;;;;;5115853;28;20307;-92
2022/07/17 04:30:07;;;;;;;;;;;;;;;;;;5117323;28;19915;-94
2022/07/17 04:32:32;;;;;;;;;;;;;;;;;;5117454;28;20397;-92
2022/07/17 04:34:57;;;;;;;;;;;;;;;;;;5116039;28;19919;-88
2022/07/17 04:37:23;;;;;;;;;;;;;;;;;;5117239;28;19916;-91
2022/07/17 04:39:49;;;;;;;;;;;;;;;;;;5115907;28;20328;-93
2022/07/17 04:42:14;;;;;;;;;;;;;;;;;;5117070;28;20424;-93
2022/07/17 04:44:39;;;;;;;;;;;;;;;;;;5117175;28;19920;-88
2022/07/17 04:47:05;;;;;;;;;;;;;;;;;;5117165;28;19919;-91
2022/07/17 04:49:30;;;;;;;;;;;;;;;;;;5116916;28;19916;-93
2022/07/17 04:51:56;;;;;;;;;;;;;;;;;;5116993;28;19915;-93
2022/07/17 04:54:21;;;;;;;;;;;;;;;;;;5116954;27;19927;-91
2022/07/17 04:56:47;;;;;;;;;;;;;;;;;;5117171;27;19920;-87
2022/07/17 04:59:12;;;;;;;;;;;;;;;;;;5116890;28;20371;-87
2022/07/17 05:01:38;;;;;;;;;;;;;;;;;;5115705;28;19922;-90
2022/07/17 05:04:04;;;;;;;;;;;;;;;;;;5116799;28;19916;-87
2022/07/17 05:06:30;;;;;;;;;;;;;;;;;;5116542;28;20379;-90
2022/07/17 05:08:55;;;;;;;;;;;;;;;;;;5116581;28;19923;-88
2022/07/17 05:11:21;;;;;;;;;;;;;;;;;;5116453;28;19966;-92
2022/07/17 05:13:46;;;;;;;;;;;;;;;;;;5116468;28;19923;-93
2022/07/17 05:16:12;;;;;;;;;;;;;;;;;;5116494;28;19920;-86
2022/07/17 05:18:37;;;;;;;;;;;;;;;;;;5116322;28;19965;-93
2022/07/17 05:21:02;;;;;;;;;;;;;;;;;;5126774;27;19929;-88
2022/07/17 05:23:28;;;;;;;;;;;;;;;;;;5157677;27;19933;-91
2022/07/17 05:25:53;;;;;;;;;;;;;;;;;;5157558;27;19919;-87
2022/07/17 05:28:19;;;;;;;;;;;;;;;;;;5157451;27;19919;-87
2022/07/17 05:30:44;;;;;;;;;;;;;;;;;;5157344;27;19919;-88
2022/07/17 05:33:09;;;;;;;;;;;;;;;;;;5157413;27;19919;-90
2022/07/17 05:35:35;;;;;;;;;;;;;;;;;;5157338;27;19915;-89
2022/07/17 05:38:00;;;;;;;;;;;;;;;;;;5157257;27;20369;-89
2022/07/17 05:40:26;;;;;;;;;;;;;;;;;;5157185;27;19915;-93
2022/07/17 05:42:51;;;;;;;;;;;;;;;;;;5157379;27;19912;-92
2022/07/17 05:45:17;;;;;;;;;;;;;;;;;;5157321;27;19923;-93
2022/07/17 05:47:42;;;;;;;;;;;;;;;;;;5157103;27;19922;-91
2022/07/17 05:50:07;;;;;;;;;;;;;;;;;;5157032;27;19915;-89
2022/07/17 05:52:33;;;;;;;;;;;;;;;;;;5157154;27;19915;-92
2022/07/17 05:54:58;;;;;;;;;;;;;;;;;;5138514;27;20278;-90
2022/07/17 05:57:24;;;;;;;;;;;;;;;;;;5156942;27;20350;-88
2022/07/17 05:59:49;;;;;;;;;;;;;;;;;;5156874;27;19964;-89
2022/07/17 06:02:15;;;;;;;;;;;;;;;;;;5156792;27;19967;-91
2022/07/17 06:04:40;;;;;;;;;;;;;;;;;;5156646;27;20282;-91
2022/07/17 06:07:05;;;;;;;;;;;;;;;;;;5156667;27;19915;-91
2022/07/17 06:09:32;;;;;;;;;;;;;;;;;;5156552;27;20305;-85
2022/07/17 06:11:57;;;;;;;;;;;;;;;;;;5156518;27;19998;-84
2022/07/17 06:14:24;;;;;;;;;;;;;;;;;;5156134;27;19915;-85
2022/07/17 06:16:49;;;;;;;;;;;;;;;;;;5156423;27;19984;-91
2022/07/17 06:19:15;;;;;;;;;;;;;;;;;;5156429;27;19953;-92
2022/07/17 06:21:40;;;;;;;;;;;;;;;;;;5156124;27;19986;-90
2022/07/17 06:24:06;;;;;;;;;;;;;;;;;;5156479;27;19915;-92
2022/07/17 06:26:31;;;;;;;;;;;;;;;;;;5156246;27;19915;-94
2022/07/17 06:28:56;;;;;;;;;;;;;;;;;;5156290;27;19911;-87
2022/07/17 06:31:22;;;;;;;;;;;;;;;;;;5156241;27;19937;-88
2022/07/17 06:33:48;;;;;;;;;;;;;;;;;;5156186;27;20294;-90
2022/07/17 06:36:13;;;;;;;;;;;;;;;;;;5156103;27;19918;-89
2022/07/17 06:38:39;;;;;;;;;;;;;;;;;;5156002;27;19961;-86
2022/07/17 06:41:04;;;;;;;;;;;;;;;;;;5156100;27;20370;-88
2022/07/17 06:43:30;;;;;;;;;;;;;;;;;;5155952;27;20013;-90
2022/07/17 06:45:55;;;;;;;;;;;;;;;;;;5155953;27;20346;-91
2022/07/17 06:48:21;;;;;;;;;;;;;;;;;;5155874;27;19915;-87
2022/07/17 06:50:46;;;;;;;;;;;;;;;;;;5155771;27;19965;-90
2022/07/17 06:53:12;;;;;;;;;;;;;;;;;;5155891;27;20392;-95
2022/07/17 06:55:37;;;;;;;;;;;;;;;;;;5155824;27;19922;-89
2022/07/17 06:58:03;;;;;;;;;;;;;;;;;;5155745;27;19915;-94
2022/07/17 07:00:28;;;;;;;;;;;;;;;;;;5155661;27;19959;-91
2022/07/17 07:02:54;;;;;;;;;;;;;;;;;;5155687;27;20290;-91
2022/07/17 07:05:19;;;;;;;;;;;;;;;;;;5155566;27;19984;-91
2022/07/17 07:07:45;;;;;;;;;;;;;;;;;;5155509;27;19927;-92
2022/07/17 07:10:10;;;;;;;;;;;;;;;;;;5155530;27;19919;-88
2022/07/17 07:12:36;;;;;;;;;;;;;;;;;;5155429;27;19919;-87
2022/07/17 07:15:01;;;;;;;;;;;;;;;;;;5155388;27;19919;-87
2022/07/17 07:17:27;;;;;;;;;;;;;;;;;;5155592;27;19966;-89
2022/07/17 07:19:52;;;;;;;;;;;;;;;;;;5155249;27;19915;-89
2022/07/17 07:22:17;;;;;;;;;;;;;;;;;;5155202;27;19933;-89
2022/07/17 07:24:43;;;;;;;;;;;;;;;;;;5154469;27;19915;-91
2022/07/17 07:27:08;;;;;;;;;;;;;;;;;;5155310;27;19915;-92
2022/07/17 07:29:34;;;;;;;;;;;;;;;;;;5155159;27;19919;-90
2022/07/17 07:32:00;;;;;;;;;;;;;;;;;;5155034;27;20013;-90
2022/07/17 07:34:25;;;;;;;;;;;;;;;;;;5155181;27;20027;-88
2022/07/17 07:36:50;;;;;;;;;;;;;;;;;;5155102;27;20375;-92
2022/07/17 07:39:16;;;;;;;;;;;;;;;;;;5155149;27;19939;-90
2022/07/17 07:41:41;;;;;;;;;;;;;;;;;;5155186;27;19915;-88
2022/07/17 07:44:07;;;;;;;;;;;;;;;;;;5155097;27;19918;-92
2022/07/17 07:46:33;;;;;;;;;;;;;;;;;;5155173;27;19922;-88
2022/07/17 07:48:59;;;;;;;;;;;;;;;;;;5155177;27;19915;-87
2022/07/17 07:51:24;;;;;;;;;;;;;;;;;;5155125;27;19915;-94
2022/07/17 07:53:49;;;;;;;;;;;;;;;;;;5155303;27;19919;-90
2022/07/17 07:56:15;;;;;;;;;;;;;;;;;;5155570;27;20315;-90
2022/07/17 07:58:40;;;;;;;;;;;;;;;;;;5155485;27;19915;-87
2022/07/17 08:01:06;;;;;;;;;;;;;;;;;;5151023;27;19919;-86
2022/07/17 08:03:31;;;;;;;;;;;;;;;;;;5191804;27;19922;-83
2022/07/17 08:05:56;;;;;;;;;;;;;;;;;;5182646;27;19933;-83
2022/07/17 08:08:22;;;;;;;;;;;;;;;;;;5196709;27;19915;-84
2022/07/17 08:10:47;;;;;;;;;;;;;;;;;;5165538;27;19922;-88
2022/07/17 08:13:13;;;;;;;;;;;;;;;;;;5180212;27;19915;-94
2022/07/17 08:15:38;;;;;;;;;;;;;;;;;;5175949;27;20009;-92
2022/07/17 08:18:04;;;;;;;;;;;;;;;;;;5175793;27;19922;-93
2022/07/17 08:20:29;;;;;;;;;;;;;;;;;;5175276;27;19934;-87
2022/07/17 08:22:55;;;;;;;;;;;;;;;;;;5175576;27;19915;-91
2022/07/17 08:25:20;;;;;;;;;;;;;;;;;;5175247;27;20058;-87
2022/07/17 08:27:46;;;;;;;;;;;;;;;;;;5175597;27;19921;-93
2022/07/17 08:30:12;;;;;;;;;;;;;;;;;;5175890;27;19925;-89
2022/07/17 08:32:38;;;;;;;;;;;;;;;;;;5175646;27;19915;-88
2022/07/17 08:35:04;;;;;;;;;;;;;;;;;;5175309;27;19917;-92
2022/07/17 08:37:29;;;;;;;;;;;;;;;;;;5178953;27;19914;-89
2022/07/17 08:39:55;;;;;;;;;;;;;;;;;;5179599;27;19940;-90
2022/07/17 08:42:21;;;;;;;;;;;;;;;;;;5179188;27;19918;-88
2022/07/17 08:44:46;;;;;;;;;;;;;;;;;;5179365;27;19915;-86
2022/07/17 08:47:12;;;;;;;;;;;;;;;;;;5179197;27;19915;-88
2022/07/17 08:49:40;;;;;;;;;;;;;;;;;;5179199;27;19919;-88
2022/07/17 08:52:06;;;;;;;;;;;;;;;;;;5179141;27;20390;-88
2022/07/17 08:54:31;;;;;;;;;;;;;;;;;;5179061;27;19922;-90
2022/07/17 08:56:57;;;;;;;;;;;;;;;;;;5179059;27;19915;-94
2022/07/17 08:59:22;;;;;;;;;;;;;;;;;;5178924;27;19915;-88
2022/07/17 09:01:48;;;;;;;;;;;;;;;;;;5178882;27;19919;-88
2022/07/17 09:04:13;;;;;;;;;;;;;;;;;;5178917;27;19918;-90
2022/07/17 09:06:39;;;;;;;;;;;;;;;;;;5178905;27;19925;-86
2022/07/17 09:09:06;;;;;;;;;;;;;;;;;;5179021;27;19925;-89
2022/07/17 09:11:41;;;;;;;;;;;;;;;;;;5178707;27;19983;-88
2022/07/17 09:14:07;;;;;;;;;;;;;;;;;;5178876;27;19915;-87
2022/07/17 09:16:34;;;;;;;;;;;;;;;;;;5178593;27;19955;-90
2022/07/17 09:18:59;;;;;;;;;;;;;;;;;;5159911;27;19922;-91
2022/07/17 09:21:26;;;;;;;;;;;;;;;;;;5159723;27;19940;-87
2022/07/17 09:23:58;;;;;;;;;;;;;;;;;;5178543;27;19922;-90
2022/07/17 09:26:23;;;;;;;;;;;;;;;;;;5178440;27;19967;-89
2022/07/17 09:28:48;;;;;;;;;;;;;;;;;;5178232;27;20323;-87
2022/07/17 09:31:23;;;;;;;;;;;;;;;;;;5178254;27;19915;-85
2022/07/17 09:33:49;;;;;;;;;;;;;;;;;;5178311;27;19915;-91
2022/07/17 09:36:14;;;;;;;;;;;;;;;;;;5159543;27;19919;-84
2022/07/17 09:38:41;;;;;;;;;;;;;;;;;;5178241;27;19963;-85
2022/07/17 09:41:11;;;;;;;;;;;;;;;;;;5178014;27;19921;-94
2022/07/17 09:43:39;;;;;;;;;;;;;;;;;;5178166;27;19925;-90
2022/07/17 09:46:05;;;;;;;;;;;;;;;;;;5178144;27;19921;-91
2022/07/17 09:48:31;;;;;;;;;;;;;;;;;;5177022;27;20005;-90
2022/07/17 09:50:56;;;;;;;;;;;;;;;;;;5177967;27;19941;-93
2022/07/17 09:53:22;;;;;;;;;;;;;;;;;;5177966;27;19919;-84
2022/07/17 09:55:49;;;;;;;;;;;;;;;;;;5177822;27;20302;-91
2022/07/17 09:58:15;;;;;;;;;;;;;;;;;;5177791;27;19955;-89
2022/07/17 10:00:40;;;;;;;;;;;;;;;;;;5177670;27;19918;-85
2022/07/17 10:03:06;;;;;;;;;;;;;;;;;;5177690;27;20285;-92
2022/07/17 10:05:31;;;;;;;;;;;;;;;;;;5177752;27;20420;-94
2022/07/17 10:07:57;;;;;;;;;;;;;;;;;;5177687;27;19926;-84
2022/07/17 10:10:22;;;;;;;;;;;;;;;;;;5177369;27;20298;-91
2022/07/17 10:12:49;;;;;;;;;;;;;;;;;;5177499;27;19919;-88
2022/07/17 10:15:15;;;;;;;;;;;;;;;;;;5177530;27;20301;-88
2022/07/17 10:17:40;;;;;;;;;;;;;;;;;;5177457;27;19919;-84
2022/07/17 10:20:06;;;;;;;;;;;;;;;;;;5177455;27;19915;-84
2022/07/17 10:22:45;;;;;;;;;;;;;;;;;;5177126;27;19926;-85
2022/07/17 10:25:17;;;;;;;;;;;;;;;;;;5177226;27;19963;-93
2022/07/17 10:27:53;;;;;;;;;;;;;;;;;;5177135;27;19910;-85
2022/07/17 10:30:20;;;;;;;;;;;;;;;;;;5177137;27;20009;-86
2022/07/17 10:32:50;;;;;;;;;;;;;;;;;;5177044;27;19915;-85
2022/07/17 10:35:16;;;;;;;;;;;;;;;;;;5177076;27;19915;-94
2022/07/17 10:37:41;;;;;;;;;;;;;;;;;;5177079;27;19957;-92
2022/07/17 10:40:07;;;;;;;;;;;;;;;;;;5158229;27;20029;-84
2022/07/17 10:42:43;;;;;;;;;;;;;;;;;;5158353;27;19918;-85
2022/07/17 10:45:10;;;;;;;;;;;;;;;;;;5176923;27;19976;-91
2022/07/17 10:47:56;;;;;;;;;;;;;;;;;;5177054;27;20412;-85
2022/07/17 10:50:27;;;;;;;;;;;;;;;;;;5176109;27;19921;-93
2022/07/17 10:52:59;;;;;;;;;;;;;;;;;;5176947;27;19966;-85
2022/07/17 10:55:25;;;;;;;;;;;;;;;;;;5176754;27;19997;-92
2022/07/17 10:57:50;;;;;;;;;;;;;;;;;;5176682;27;20098;-85
2022/07/17 11:00:16;;;;;;;;;;;;;;;;;;5176403;27;19966;-88
2022/07/17 11:02:42;;;;;;;;;;;;;;;;;;5176513;27;19919;-89
2022/07/17 11:05:12;;;;;;;;;;;;;;;;;;5176767;27;19950;-93
2022/07/17 11:07:50;;;;;;;;;;;;;;;;;;5176374;27;20429;-90
2022/07/17 11:10:16;;;;;;;;;;;;;;;;;;5176385;27;19914;-85
2022/07/17 11:12:41;;;;;;;;;;;;;;;;;;5176345;27;19949;-85
2022/07/17 11:15:07;;;;;;;;;;;;;;;;;;5176411;27;19918;-84
2022/07/17 11:17:32;;;;;;;;;;;;;;;;;;5176351;27;19918;-87
2022/07/17 11:19:59;;;;;;;;;;;;;;;;;;5176225;27;19915;-93
2022/07/17 11:22:25;;;;;;;;;;;;;;;;;;5176077;27;19963;-95
2022/07/17 11:24:50;;;;;;;;;;;;;;;;;;5157386;27;20323;-91
2022/07/17 11:27:19;;;;;;;;;;;;;;;;;;5176246;27;19969;-84
2022/07/17 11:29:45;;;;;;;;;;;;;;;;;;5176408;27;20010;-92
2022/07/17 11:32:10;;;;;;;;;;;;;;;;;;5157328;27;20001;-90
2022/07/17 11:34:37;;;;;;;;;;;;;;;;;;5176128;27;19940;-94
2022/07/17 11:37:03;;;;;;;;;;;;;;;;;;5176080;27;19933;-85
2022/07/17 11:39:43;;;;;;;;;;;;;;;;;;5176004;27;19914;-85
2022/07/17 11:42:19;;;;;;;;;;;;;;;;;;5175811;27;19911;-84
2022/07/17 11:44:45;;;;;;;;;;;;;;;;;;5175949;27;19950;-84
2022/07/17 11:47:11;;;;;;;;;;;;;;;;;;5176287;27;19922;-85
2022/07/17 11:49:40;;;;;;;;;;;;;;;;;;5176481;27;19922;-85
2022/07/17 11:52:09;;;;;;;;;;;;;;;;;;5176199;27;19914;-87
2022/07/17 11:54:49;;;;;;;;;;;;;;;;;;5191016;27;19936;-84
2022/07/17 11:57:15;;;;;;;;;;;;;;;;;;5173855;27;19922;-85
2022/07/17 11:59:40;;;;;;;;;;;;;;;;;;5187205;27;19915;-85
2022/07/17 12:02:13;;;;;;;;;;;;;;;;;;5195985;27;19954;-85
2022/07/17 12:04:58;;;;;;;;;;;;;;;;;;5183952;27;19958;-93
2022/07/17 12:07:25;;;;;;;;;;;;;;;;;;5180235;27;19914;-90
2022/07/17 12:09:51;;;;;;;;;;;;;;;;;;5176845;27;20002;-85
2022/07/17 12:12:19;;;;;;;;;;;;;;;;;;5179345;27;19969;-88
2022/07/17 12:14:51;;;;;;;;;;;;;;;;;;5180106;27;20445;-88
2022/07/17 12:17:16;;;;;;;;;;;;;;;;;;5161150;27;20012;-87
2022/07/17 12:19:42;;;;;;;;;;;;;;;;;;5179838;27;19961;-94
2022/07/17 12:22:07;;;;;;;;;;;;;;;;;;5179841;27;20010;-88
2022/07/17 12:24:36;;;;;;;;;;;;;;;;;;5179767;27;19918;-89
2022/07/17 12:27:02;;;;;;;;;;;;;;;;;;5179689;27;20369;-90
2022/07/17 12:29:28;;;;;;;;;;;;;;;;;;5179714;27;19957;-93
2022/07/17 12:32:07;;;;;;;;;;;;;;;;;;5179403;27;19915;-85
2022/07/17 12:34:33;;;;;;;;;;;;;;;;;;5160817;27;20289;-95
2022/07/17 12:36:59;;;;;;;;;;;;;;;;;;5160772;27;19911;-94
2022/07/17 12:39:24;;;;;;;;;;;;;;;;;;5160879;27;19922;-91
2022/07/17 12:41:50;;;;;;;;;;;;;;;;;;5180391;27;19937;-85
2022/07/17 12:44:16;;;;;;;;;;;;;;;;;;5180162;27;20375;-92
2022/07/17 12:46:41;;;;;;;;;;;;;;;;;;5179412;27;20401;-90
2022/07/17 12:49:06;;;;;;;;;;;;;;;;;;5179059;27;19910;-92
2022/07/17 12:51:32;;;;;;;;;;;;;;;;;;5179636;27;19915;-92
2022/07/17 12:53:58;;;;;;;;;;;;;;;;;;5179247;27;20342;-86
2022/07/17 12:56:23;;;;;;;;;;;;;;;;;;5179115;27;19915;-86
2022/07/17 12:58:49;;;;;;;;;;;;;;;;;;5160328;27;20510;-91
2022/07/17 13:01:15;;;;;;;;;;;;;;;;;;5179141;27;19963;-89
2022/07/17 13:03:41;;;;;;;;;;;;;;;;;;5178895;27;20377;-85
2022/07/17 13:06:06;;;;;;;;;;;;;;;;;;5178951;27;20010;-93
2022/07/17 13:08:32;;;;;;;;;;;;;;;;;;5178818;27;19961;-86
2022/07/17 13:10:57;;;;;;;;;;;;;;;;;;5178760;27;19958;-91
2022/07/17 13:13:23;;;;;;;;;;;;;;;;;;5178665;27;19915;-87
2022/07/17 13:15:48;;;;;;;;;;;;;;;;;;5178612;27;19915;-91
2022/07/17 13:18:14;;;;;;;;;;;;;;;;;;5178833;27;19915;-85
2022/07/17 13:20:39;;;;;;;;;;;;;;;;;;5178275;27;19915;-87
2022/07/17 13:23:05;;;;;;;;;;;;;;;;;;5177248;27;19992;-86
2022/07/17 13:25:31;;;;;;;;;;;;;;;;;;5178457;27;19927;-85
2022/07/17 13:27:56;;;;;;;;;;;;;;;;;;5178335;27;19918;-91
2022/07/17 13:30:21;;;;;;;;;;;;;;;;;;5178438;27;19914;-85
2022/07/17 13:32:47;;;;;;;;;;;;;;;;;;5178260;27;19915;-91
2022/07/17 13:35:12;;;;;;;;;;;;;;;;;;5178466;27;19914;-85
2022/07/17 13:37:38;;;;;;;;;;;;;;;;;;5178362;27;19915;-89
2022/07/17 13:40:04;;;;;;;;;;;;;;;;;;5178420;27;19915;-85
2022/07/17 13:42:30;;;;;;;;;;;;;;;;;;5178162;27;20021;-84
2022/07/17 13:44:55;;;;;;;;;;;;;;;;;;5178167;27;19914;-93
2022/07/17 13:47:21;;;;;;;;;;;;;;;;;;5178094;27;20286;-85
2022/07/17 13:49:46;;;;;;;;;;;;;;;;;;5178058;27;19915;-94
2022/07/17 13:52:11;;;;;;;;;;;;;;;;;;5177815;27;19926;-95
2022/07/17 13:54:37;;;;;;;;;;;;;;;;;;5178001;27;19933;-93
2022/07/17 13:57:02;;;;;;;;;;;;;;;;;;5177872;27;20396;-85
2022/07/17 13:59:28;;;;;;;;;;;;;;;;;;5177825;27;19919;-85
2022/07/17 14:01:53;;;;;;;;;;;;;;;;;;5177760;27;19915;-85
2022/07/17 14:04:19;;;;;;;;;;;;;;;;;;5177634;27;19910;-90
2022/07/17 14:06:44;;;;;;;;;;;;;;;;;;5177600;27;19915;-84
2022/07/17 14:09:10;;;;;;;;;;;;;;;;;;5177619;27;19922;-89
2022/07/17 14:11:36;;;;;;;;;;;;;;;;;;5177507;27;19985;-89
2022/07/17 14:14:01;;;;;;;;;;;;;;;;;;5177546;27;20009;-89
2022/07/17 14:16:27;;;;;;;;;;;;;;;;;;5177356;27;19965;-87
2022/07/17 14:18:58;;;;;;;;;;;;;;;;;;5177496;27;19915;-91
2022/07/17 14:21:35;;;;;;;;;;;;;;;;;;5177323;27;19926;-92
2022/07/17 14:24:01;;;;;;;;;;;;;;;;;;5177343;27;19984;-85
2022/07/17 14:26:26;;;;;;;;;;;;;;;;;;5177198;27;19910;-85
2022/07/17 14:28:52;;;;;;;;;;;;;;;;;;5177136;27;19918;-90
2022/07/17 14:31:19;;;;;;;;;;;;;;;;;;5177190;27;19919;-86
2022/07/17 14:33:46;;;;;;;;;;;;;;;;;;5176849;27;19915;-90
2022/07/17 14:36:11;;;;;;;;;;;;;;;;;;5177084;27;19915;-86
2022/07/17 14:38:37;;;;;;;;;;;;;;;;;;5177293;27;19922;-84
2022/07/17 14:41:02;;;;;;;;;;;;;;;;;;5177126;27;20362;-93
2022/07/17 14:43:28;;;;;;;;;;;;;;;;;;5176993;27;20022;-86
2022/07/17 14:45:54;;;;;;;;;;;;;;;;;;5176960;27;19919;-86
2022/07/17 14:48:20;;;;;;;;;;;;;;;;;;5158122;27;19925;-86
2022/07/17 14:50:45;;;;;;;;;;;;;;;;;;5158226;27;19918;-85
2022/07/17 14:53:11;;;;;;;;;;;;;;;;;;5158029;27;19918;-93
2022/07/17 14:55:36;;;;;;;;;;;;;;;;;;5158091;27;19919;-84
2022/07/17 14:58:02;;;;;;;;;;;;;;;;;;5176720;27;20266;-85
2022/07/17 15:00:27;;;;;;;;;;;;;;;;;;5176651;27;19915;-90
2022/07/17 15:02:52;;;;;;;;;;;;;;;;;;5176555;27;19915;-90
2022/07/17 15:05:18;;;;;;;;;;;;;;;;;;5176461;27;19959;-93
2022/07/17 15:07:44;;;;;;;;;;;;;;;;;;5176488;27;20013;-94
2022/07/17 15:10:09;;;;;;;;;;;;;;;;;;5176390;27;19914;-86
2022/07/17 15:12:34;;;;;;;;;;;;;;;;;;5176270;27;20381;-90
2022/07/17 15:15:00;;;;;;;;;;;;;;;;;;5176330;27;19919;-85
2022/07/17 15:17:25;;;;;;;;;;;;;;;;;;5176523;27;19922;-85
2022/07/17 15:19:51;;;;;;;;;;;;;;;;;;5176186;27;20396;-85
2022/07/17 15:22:16;;;;;;;;;;;;;;;;;;5176029;27;20002;-90
2022/07/17 15:24:44;;;;;;;;;;;;;;;;;;5156923;27;20204;-84
2022/07/17 15:27:10;;;;;;;;;;;;;;;;;;5176036;27;19960;-85
2022/07/17 15:29:36;;;;;;;;;;;;;;;;;;5176147;27;19950;-87
2022/07/17 15:32:01;;;;;;;;;;;;;;;;;;5157392;27;20401;-91
2022/07/17 15:34:27;;;;;;;;;;;;;;;;;;5176197;27;19958;-90
2022/07/17 15:36:52;;;;;;;;;;;;;;;;;;5176479;27;19911;-86
2022/07/17 15:39:19;;;;;;;;;;;;;;;;;;5176148;27;19915;-92
2022/07/17 15:41:44;;;;;;;;;;;;;;;;;;5176118;27;19910;-86
2022/07/17 15:44:10;;;;;;;;;;;;;;;;;;5176054;27;19946;-86
2022/07/17 15:46:35;;;;;;;;;;;;;;;;;;5175281;27;19962;-87
2022/07/17 15:49:00;;;;;;;;;;;;;;;;;;5176260;27;19915;-87
2022/07/17 15:51:26;;;;;;;;;;;;;;;;;;5176497;27;19922;-91
2022/07/17 15:53:52;;;;;;;;;;;;;;;;;;5176430;27;19919;-94
2022/07/17 15:56:18;;;;;;;;;;;;;;;;;;5157500;27;19926;-85
2022/07/17 15:58:43;;;;;;;;;;;;;;;;;;5180986;27;19919;-85
2022/07/17 16:01:08;;;;;;;;;;;;;;;;;;5177420;27;19920;-86
2022/07/17 16:03:34;;;;;;;;;;;;;;;;;;5191249;27;19915;-89
2022/07/17 16:05:59;;;;;;;;;;;;;;;;;;5176287;27;19906;-85
2022/07/17 16:08:25;;;;;;;;;;;;;;;;;;5164965;27;19960;-89
2022/07/17 16:10:50;;;;;;;;;;;;;;;;;;5160068;27;19926;-86
2022/07/17 16:13:16;;;;;;;;;;;;;;;;;;5155577;27;20297;-93
2022/07/17 16:15:41;;;;;;;;;;;;;;;;;;5154996;27;20350;-93
2022/07/17 16:18:07;;;;;;;;;;;;;;;;;;5155041;27;19919;-93
2022/07/17 16:20:32;;;;;;;;;;;;;;;;;;5154625;27;19967;-86
2022/07/17 16:22:58;;;;;;;;;;;;;;;;;;5154638;27;20440;-87
2022/07/17 16:25:23;;;;;;;;;;;;;;;;;;5154816;27;20002;-85
2022/07/17 16:27:48;;;;;;;;;;;;;;;;;;5154592;27;19978;-92
2022/07/17 16:30:14;;;;;;;;;;;;;;;;;;5154785;27;20007;-86
2022/07/17 16:32:39;;;;;;;;;;;;;;;;;;5154617;27;19962;-92
2022/07/17 16:35:05;;;;;;;;;;;;;;;;;;5154645;27;19959;-86
2022/07/17 16:37:30;;;;;;;;;;;;;;;;;;5154501;27;19989;-92